Time;durP1;ratioP1;P1;durP2;ratioP2;P2;SDS_P1;SDS_P2;PMS_P1;PMS_P2;Temp;Humidity;BMP_temperature;BMP_pressure;BME280_temperature;BME280_humidity;BME280_pressure;Samples;Min_cycle;Max_cycle;Signal;HPM_P1;HPM_P2
2022/10/18 17:58:25;;;;;;;3.60;3.30;;;21.10;99.90;;;;;;5166638;27;20570;-69
2022/10/18 18:00:52;;;;;;;3.47;3.27;;;21.10;99.90;;;;;;5132627;27;20520;-68
2022/10/18 18:03:19;;;;;;;4.33;3.83;;;21.20;99.90;;;;;;5129844;27;20473;-69
2022/10/18 18:05:46;;;;;;;3.87;3.67;;;21.20;99.90;;;;;;5129862;27;20460;-68
2022/10/18 18:08:13;;;;;;;4.70;4.30;;;21.30;99.90;;;;;;5129912;28;20451;-68
2022/10/18 18:10:41;;;;;;;4.53;3.77;;;21.30;99.90;;;;;;5135642;22;20919;-65
2022/10/18 18:13:07;;;;;;;3.90;3.70;;;21.40;99.90;;;;;;5080914;28;20521;-64
2022/10/18 18:15:36;;;;;;;3.40;3.20;;;21.40;99.90;;;;;;5089825;28;20435;-65
2022/10/18 18:18:03;;;;;;;3.37;3.07;;;21.50;99.90;;;;;;5089376;28;20478;-65
2022/10/18 18:20:29;;;;;;;3.97;3.57;;;21.50;99.90;;;;;;5081586;28;20474;-63
2022/10/18 18:22:57;;;;;;;3.40;3.10;;;21.50;99.90;;;;;;5068546;28;20483;-66
2022/10/18 18:25:23;;;;;;;3.67;3.37;;;21.50;99.90;;;;;;5068768;28;20439;-64
2022/10/18 18:27:50;;;;;;;4.10;3.80;;;21.50;99.90;;;;;;5068936;28;20527;-65
2022/10/18 18:30:17;;;;;;;4.00;3.60;;;21.60;99.90;;;;;;5068653;28;20491;-66
2022/10/18 18:32:45;;;;;;;4.07;3.73;;;21.60;99.90;;;;;;5068740;28;20542;-64
2022/10/18 18:35:12;;;;;;;4.10;3.80;;;21.60;99.90;;;;;;5068764;28;20984;-66
2022/10/18 18:37:39;;;;;;;4.53;4.13;;;21.60;99.90;;;;;;5068715;28;20475;-65
2022/10/18 18:40:07;;;;;;;4.10;3.80;;;21.50;99.90;;;;;;5068219;28;20466;-65
2022/10/18 18:42:34;;;;;;;3.40;3.20;;;21.50;99.90;;;;;;5068254;28;20517;-65
2022/10/18 18:45:01;;;;;;;3.90;3.50;;;21.50;99.90;;;;;;5068627;28;20471;-66
2022/10/18 18:47:28;;;;;;;3.50;3.20;;;21.50;99.90;;;;;;5068866;28;20467;-66
2022/10/18 18:49:56;;;;;;;2.60;2.50;;;21.50;99.90;;;;;;5068688;28;20816;-65
2022/10/18 18:52:23;;;;;;;5.50;4.00;;;21.50;99.90;;;;;;5068607;28;20523;-65
2022/10/18 18:54:50;;;;;;;5.43;3.70;;;21.50;99.90;;;;;;5068376;28;20451;-66
2022/10/18 18:57:17;;;;;;;3.90;3.60;;;21.50;99.90;;;;;;5069323;28;20479;-66
2022/10/18 18:59:44;;;;;;;3.97;3.67;;;21.50;99.90;;;;;;5069555;28;20535;-67
2022/10/18 19:02:13;;;;;;;3.80;3.50;;;21.50;99.90;;;;;;5069497;28;20443;-67
2022/10/18 19:04:41;;;;;;;3.60;3.30;;;21.50;99.90;;;;;;5069580;28;21045;-65
2022/10/18 19:07:09;;;;;;;3.83;3.47;;;21.50;99.90;;;;;;5069291;28;20793;-67
2022/10/18 19:09:37;;;;;;;3.63;3.33;;;21.50;99.90;;;;;;5056867;28;20555;-66
2022/10/18 19:12:04;;;;;;;2.80;2.60;;;21.50;99.90;;;;;;5055907;28;20462;-66
2022/10/18 19:14:31;;;;;;;5.57;3.40;;;21.50;99.90;;;;;;5055379;28;20436;-66
2022/10/18 19:16:59;;;;;;;4.40;3.90;;;21.50;99.90;;;;;;5055953;28;20507;-67
2022/10/18 19:19:28;;;;;;;2.77;2.60;;;21.50;99.90;;;;;;5054838;28;20555;-67
2022/10/18 19:21:57;;;;;;;3.37;3.17;;;21.50;99.90;;;;;;5054867;28;20805;-67
2022/10/18 19:24:29;;;;;;;3.97;3.53;;;21.50;99.90;;;;;;5055465;28;20450;-66
2022/10/18 19:26:57;;;;;;;3.23;2.90;;;21.50;99.90;;;;;;5056298;28;20452;-65
2022/10/18 19:29:26;;;;;;;5.90;3.30;;;21.50;99.90;;;;;;5056006;28;20532;-65
2022/10/18 19:31:54;;;;;;;4.17;3.93;;;21.50;99.90;;;;;;5056083;28;20454;-66
2022/10/18 19:34:24;;;;;;;4.73;3.50;;;21.50;99.90;;;;;;5055153;28;20874;-66
2022/10/18 19:36:51;;;;;;;4.37;4.00;;;21.50;99.90;;;;;;5055539;28;20479;-66
2022/10/18 19:39:20;;;;;;;3.47;3.27;;;21.50;99.90;;;;;;5055505;28;20516;-66
2022/10/18 19:41:49;;;;;;;3.93;3.63;;;21.50;99.90;;;;;;5055764;28;21007;-65
2022/10/18 19:44:17;;;;;;;3.63;3.37;;;21.50;99.90;;;;;;5056171;28;20452;-64
2022/10/18 19:46:44;;;;;;;3.50;3.30;;;21.50;99.90;;;;;;5056431;28;20535;-66
2022/10/18 19:49:11;;;;;;;3.20;3.00;;;21.50;99.90;;;;;;5055732;28;20532;-65
2022/10/18 19:51:38;;;;;;;3.43;3.13;;;21.50;99.90;;;;;;5054857;28;20929;-66
2022/10/18 19:54:06;;;;;;;3.20;2.90;;;21.50;99.90;;;;;;5055925;28;20531;-66
2022/10/18 19:56:33;;;;;;;2.90;2.70;;;21.50;99.90;;;;;;5055231;28;20535;-65
2022/10/18 19:59:01;;;;;;;5.80;4.43;;;21.50;99.90;;;;;;5054973;28;20531;-65
2022/10/18 20:01:29;;;;;;;3.10;3.00;;;21.50;99.90;;;;;;5054224;28;20527;-65
2022/10/18 20:03:56;;;;;;;2.97;2.70;;;21.50;99.90;;;;;;5055280;28;20941;-64
2022/10/18 20:06:23;;;;;;;3.97;3.57;;;21.50;99.90;;;;;;5054521;28;20454;-65
2022/10/18 20:08:51;;;;;;;4.17;2.97;;;21.50;99.90;;;;;;5054043;28;20498;-66
2022/10/18 20:11:20;;;;;;;3.33;3.13;;;21.50;99.90;;;;;;5054357;28;20559;-66
2022/10/18 20:13:47;;;;;;;3.57;3.30;;;21.50;99.90;;;;;;5053459;28;20505;-66
2022/10/18 20:16:18;;;;;;;2.60;2.50;;;21.50;99.90;;;;;;5054096;28;20450;-66
2022/10/18 20:18:45;;;;;;;3.50;3.20;;;21.50;99.90;;;;;;5053493;28;20579;-66
2022/10/18 20:21:13;;;;;;;3.53;3.23;;;21.50;99.90;;;;;;5052703;28;20563;-66
2022/10/18 20:23:41;;;;;;;3.70;3.40;;;21.50;99.90;;;;;;5053623;28;20531;-66
2022/10/18 20:26:11;;;;;;;2.90;2.70;;;21.50;99.90;;;;;;5053719;28;20443;-65
2022/10/18 20:28:39;;;;;;;3.20;3.00;;;21.50;99.90;;;;;;5053438;28;20440;-66
2022/10/18 20:31:08;;;;;;;3.37;3.17;;;21.50;99.90;;;;;;5053556;28;21038;-66
2022/10/18 20:33:37;;;;;;;3.27;3.07;;;21.50;99.90;;;;;;5053373;28;20516;-66
2022/10/18 20:36:05;;;;;;;3.70;2.70;;;21.50;99.90;;;;;;5053317;28;20535;-66
2022/10/18 20:38:33;;;;;;;3.47;3.27;;;21.50;99.90;;;;;;5053164;28;20476;-66
2022/10/18 20:41:05;;;;;;;4.00;3.70;;;21.50;99.90;;;;;;5053151;28;20828;-66
2022/10/18 20:43:32;;;;;;;2.93;2.73;;;21.50;99.90;;;;;;5053010;28;20440;-67
2022/10/18 20:46:00;;;;;;;4.33;4.03;;;21.50;99.90;;;;;;5053151;28;20448;-65
2022/10/18 20:48:27;;;;;;;4.40;3.87;;;21.50;99.90;;;;;;5052811;28;20444;-65
2022/10/18 20:50:55;;;;;;;5.83;4.70;;;21.50;99.90;;;;;;5052852;28;20548;-66
2022/10/18 20:53:23;;;;;;;3.77;3.57;;;21.50;99.90;;;;;;5052697;28;20453;-65
2022/10/18 20:55:50;;;;;;;3.10;2.90;;;21.50;99.90;;;;;;5052811;28;20808;-64
2022/10/18 20:58:17;;;;;;;4.23;3.50;;;21.50;99.90;;;;;;5052568;28;20917;-64
2022/10/18 21:00:44;;;;;;;3.40;3.10;;;21.50;99.90;;;;;;5052590;28;20559;-64
2022/10/18 21:03:10;;;;;;;3.00;2.80;;;21.50;99.90;;;;;;5052371;28;20452;-64
2022/10/18 21:05:37;;;;;;;3.77;2.83;;;21.50;99.90;;;;;;5052559;28;20450;-65
2022/10/18 21:08:06;;;;;;;3.00;2.70;;;21.50;99.90;;;;;;5052538;28;20475;-66
2022/10/18 21:10:32;;;;;;;3.43;2.63;;;21.50;99.90;;;;;;5052773;28;20480;-64
2022/10/18 21:12:59;;;;;;;3.23;3.03;;;21.50;99.90;;;;;;5052434;28;20567;-66
2022/10/18 21:15:26;;;;;;;4.03;3.10;;;21.50;99.90;;;;;;5052804;28;20537;-65
2022/10/18 21:17:53;;;;;;;2.80;2.60;;;21.50;99.90;;;;;;5052718;28;20522;-67
2022/10/18 21:20:20;;;;;;;2.97;2.77;;;21.50;99.90;;;;;;5052412;28;20839;-66
2022/10/18 21:22:46;;;;;;;3.17;2.93;;;21.40;99.90;;;;;;5053082;28;20574;-66
